createdAt,value
2022-11-10T00:00:10.295Z,1.30
2022-11-10T00:02:00.797Z,1.35
2022-11-10T00:03:51.161Z,0.88
2022-11-10T00:05:41.774Z,1.60
2022-11-10T00:07:32.182Z,1.17
2022-11-10T00:09:22.491Z,0.95
2022-11-10T00:11:12.436Z,0.98
2022-11-10T00:13:03.681Z,1.17
2022-11-10T00:15:12.462Z,0.88
2022-11-10T00:17:04.638Z,0.75
2022-11-10T00:18:54.967Z,2.78
2022-11-10T00:20:45.632Z,2.03
2022-11-10T00:22:37.897Z,1.08
2022-11-10T00:24:29.065Z,0.85
2022-11-10T00:26:20.077Z,1.23
2022-11-10T00:28:10.546Z,0.95
2022-11-10T00:30:01.157Z,1.15
2022-11-10T00:31:51.694Z,1.00
2022-11-10T00:33:44.335Z,0.73
2022-11-10T00:35:34.399Z,1.05
2022-11-10T00:37:24.869Z,1.25
2022-11-10T00:39:15.136Z,1.00
2022-11-10T00:41:05.905Z,0.77
2022-11-10T00:42:56.230Z,2.17
2022-11-10T00:44:46.831Z,0.82
2022-11-10T00:46:36.854Z,2.08
2022-11-10T00:48:27.176Z,1.02
2022-11-10T00:50:17.504Z,1.15
2022-11-10T00:52:07.588Z,1.35
2022-11-10T00:53:58.294Z,1.42
2022-11-10T00:55:49.162Z,1.55
2022-11-10T00:57:39.494Z,1.85
2022-11-10T00:59:29.839Z,1.55
2022-11-10T01:01:22.044Z,1.35
2022-11-10T01:03:17.179Z,1.23
2022-11-10T01:05:07.901Z,1.05
2022-11-10T01:06:58.368Z,1.33
2022-11-10T01:08:48.866Z,1.58
2022-11-10T01:10:39.056Z,0.93
2022-11-10T01:12:30.989Z,0.98
2022-11-10T01:14:21.506Z,1.42
2022-11-10T01:16:14.697Z,1.55
2022-11-10T01:18:05.208Z,3.28
2022-11-10T01:19:55.272Z,2.33
2022-11-10T01:21:45.215Z,1.67
2022-11-10T01:23:35.965Z,2.38
2022-11-10T01:25:26.275Z,2.58
2022-11-10T01:27:16.894Z,1.05
2022-11-10T01:29:06.958Z,2.00
2022-11-10T01:31:01.987Z,2.20
2022-11-10T01:32:52.410Z,2.10
2022-11-10T01:34:42.794Z,1.48
2022-11-10T01:36:33.149Z,1.52
2022-11-10T01:38:24.024Z,1.77
2022-11-10T01:40:14.322Z,1.45
2022-11-10T01:42:04.969Z,1.77
2022-11-10T01:44:12.607Z,0.90
2022-11-10T01:46:11.289Z,2.05
2022-11-10T01:48:06.043Z,4.78
2022-11-10T01:49:56.481Z,3.42
2022-11-10T01:51:55.568Z,5.57
2022-11-10T01:53:54.688Z,7.72
2022-11-10T01:55:46.871Z,13.23
2022-11-10T01:57:37.994Z,11.30
2022-11-10T01:59:31.853Z,13.02
2022-11-10T02:01:23.231Z,11.57
2022-11-10T02:05:10.259Z,9.50
2022-11-10T02:07:00.789Z,7.88
2022-11-10T02:08:52.473Z,7.20
2022-11-10T02:10:44.247Z,5.93
2022-11-10T02:12:37.488Z,4.03
2022-11-10T02:14:29.772Z,3.28
2022-11-10T02:16:21.273Z,4.78
2022-11-10T02:20:05.756Z,2.03
2022-11-10T02:21:55.834Z,2.10
2022-11-10T02:23:52.070Z,2.25
2022-11-10T02:25:42.941Z,2.35
2022-11-10T02:27:33.559Z,2.00
2022-11-10T02:29:25.788Z,1.63
2022-11-10T02:31:15.997Z,2.20
2022-11-10T02:33:06.336Z,2.65
2022-11-10T02:34:56.372Z,2.35
2022-11-10T02:36:46.431Z,1.60
2022-11-10T02:38:36.913Z,1.67
2022-11-10T02:40:27.261Z,1.33
2022-11-10T02:42:17.477Z,2.33
2022-11-10T02:44:08.429Z,1.63
2022-11-10T02:45:58.644Z,1.42
2022-11-10T02:47:48.781Z,1.92
2022-11-10T02:49:38.925Z,1.20
2022-11-10T02:51:28.958Z,1.58
2022-11-10T02:53:19.269Z,1.63
2022-11-10T02:55:09.936Z,2.03
2022-11-10T02:57:02.846Z,1.73
2022-11-10T02:58:52.968Z,1.73
2022-11-10T03:00:43.185Z,2.13
2022-11-10T03:02:33.591Z,1.35
2022-11-10T03:04:23.756Z,1.83
2022-11-10T03:06:14.361Z,1.58
2022-11-10T03:08:04.643Z,3.22
2022-11-10T03:09:55.022Z,2.95
2022-11-10T03:11:45.338Z,2.38
2022-11-10T03:13:51.640Z,3.20
2022-11-10T03:15:47.899Z,0.95
2022-11-10T03:17:38.008Z,1.70
2022-11-10T03:19:28.415Z,1.90
2022-11-10T03:21:18.749Z,2.42
2022-11-10T03:23:09.304Z,2.03
2022-11-10T03:24:59.404Z,2.97
2022-11-10T03:26:49.956Z,1.75
2022-11-10T03:28:40.086Z,1.38
2022-11-10T03:30:30.425Z,2.75
2022-11-10T03:32:20.847Z,2.38
2022-11-10T03:34:11.295Z,3.50
2022-11-10T03:36:01.684Z,3.20
2022-11-10T03:37:52.177Z,2.38
2022-11-10T03:39:42.266Z,1.83
2022-11-10T03:41:32.563Z,2.53
2022-11-10T03:43:23.022Z,3.10
2022-11-10T03:45:15.644Z,2.35
2022-11-10T03:47:05.703Z,1.85
2022-11-10T03:48:56.037Z,2.88
2022-11-10T03:50:46.338Z,2.40
2022-11-10T03:52:38.957Z,2.10
2022-11-10T03:54:29.081Z,1.90
2022-11-10T03:56:19.550Z,4.05
2022-11-10T03:58:10.010Z,2.20
2022-11-10T04:00:00.350Z,2.20
2022-11-10T04:01:50.443Z,1.98
2022-11-10T04:03:40.670Z,1.95
2022-11-10T04:05:49.352Z,2.60
2022-11-10T04:07:58.178Z,3.60
2022-11-10T04:09:48.309Z,1.60
2022-11-10T04:11:57.465Z,1.52
2022-11-10T04:14:06.177Z,2.83
2022-11-10T04:15:56.599Z,3.03
2022-11-10T04:17:51.050Z,2.05
2022-11-10T04:19:41.167Z,6.32
2022-11-10T04:21:31.275Z,2.25
2022-11-10T04:23:27.393Z,3.67
2022-11-10T04:25:17.357Z,1.85
2022-11-10T04:27:07.552Z,3.67
2022-11-10T04:29:02.594Z,1.83
2022-11-10T04:30:52.918Z,2.40
2022-11-10T04:32:43.167Z,1.73
2022-11-10T04:34:33.297Z,2.80
2022-11-10T04:36:26.216Z,3.42
2022-11-10T04:38:16.563Z,1.42
2022-11-10T04:40:07.516Z,2.00
2022-11-10T04:42:02.457Z,1.60
2022-11-10T04:43:53.964Z,2.75
2022-11-10T04:45:44.739Z,2.67
2022-11-10T04:47:34.897Z,3.42
2022-11-10T04:49:25.297Z,2.10
2022-11-10T04:51:15.860Z,3.25
2022-11-10T04:53:06.540Z,1.35
2022-11-10T04:54:56.974Z,2.83
2022-11-10T04:56:47.058Z,1.48
2022-11-10T04:58:37.127Z,4.45
2022-11-10T05:00:27.526Z,1.98
2022-11-10T05:02:17.985Z,3.03
2022-11-10T05:04:08.269Z,3.63
2022-11-10T05:05:58.703Z,2.00
2022-11-10T05:07:49.007Z,3.28
2022-11-10T05:09:39.445Z,3.73
2022-11-10T05:11:29.843Z,2.10
2022-11-10T05:13:20.532Z,1.85
2022-11-10T05:15:11.298Z,2.83
2022-11-10T05:17:01.690Z,1.60
2022-11-10T05:18:54.275Z,1.58
2022-11-10T05:20:44.979Z,1.85
2022-11-10T05:22:34.999Z,1.95
2022-11-10T05:24:24.920Z,2.05
2022-11-10T05:26:16.938Z,2.70
2022-11-10T05:28:09.103Z,1.83
2022-11-10T05:29:59.435Z,2.28
2022-11-10T05:31:51.709Z,3.45
2022-11-10T05:33:42.299Z,2.20
2022-11-10T05:35:33.465Z,1.23
2022-11-10T05:37:23.903Z,2.97
2022-11-10T05:39:14.005Z,2.35
2022-11-10T05:41:04.081Z,2.70
2022-11-10T05:42:54.598Z,3.28
2022-11-10T05:44:44.890Z,1.83
2022-11-10T05:46:38.041Z,1.95
2022-11-10T05:48:28.062Z,1.33
2022-11-10T05:50:20.540Z,2.30
2022-11-10T05:52:10.575Z,1.80
2022-11-10T05:54:01.068Z,2.05
2022-11-10T05:55:51.861Z,1.35
2022-11-10T05:57:44.365Z,2.17
2022-11-10T05:59:34.454Z,1.77
2022-11-10T06:01:24.664Z,1.83
2022-11-10T06:03:17.928Z,2.88
2022-11-10T06:05:08.481Z,2.55
2022-11-10T06:06:59.214Z,1.65
2022-11-10T06:08:49.523Z,1.55
2022-11-10T06:10:42.296Z,1.38
2022-11-10T06:12:32.627Z,2.35
2022-11-10T06:14:22.830Z,2.40
2022-11-10T06:16:12.959Z,1.25
2022-11-10T06:18:03.698Z,1.80
2022-11-10T06:19:53.918Z,2.45
2022-11-10T06:21:44.241Z,2.17
2022-11-10T06:23:34.147Z,2.10
2022-11-10T06:25:24.314Z,2.13
2022-11-10T06:27:14.726Z,2.15
2022-11-10T06:29:05.263Z,2.25
2022-11-10T06:30:58.063Z,1.38
2022-11-10T06:32:48.462Z,3.58
2022-11-10T06:34:38.548Z,2.03
2022-11-10T06:36:28.780Z,1.55
2022-11-10T06:38:19.284Z,2.88
2022-11-10T06:40:11.415Z,2.67
2022-11-10T06:42:01.616Z,2.53
2022-11-10T06:43:51.872Z,2.97
2022-11-10T06:45:41.993Z,2.25
2022-11-10T06:47:32.428Z,1.95
2022-11-10T06:49:22.701Z,3.47
2022-11-10T06:51:13.065Z,2.55
2022-11-10T06:53:03.956Z,1.63
2022-11-10T06:54:54.268Z,1.83
2022-11-10T06:56:44.691Z,1.80
2022-11-10T06:58:35.040Z,2.20
2022-11-10T07:00:28.045Z,1.90
2022-11-10T07:02:18.281Z,2.75
2022-11-10T07:04:24.075Z,2.60
2022-11-10T07:06:14.367Z,2.38
2022-11-10T07:08:16.393Z,3.78
2022-11-10T07:10:07.862Z,2.13
2022-11-10T07:11:58.312Z,1.55
2022-11-10T07:13:48.568Z,1.90
2022-11-10T07:15:38.663Z,2.95
2022-11-10T07:17:29.046Z,3.15
2022-11-10T07:19:19.576Z,2.90
2022-11-10T07:21:10.246Z,2.17
2022-11-10T07:23:07.224Z,2.08
2022-11-10T07:24:57.816Z,1.95
2022-11-10T07:26:48.100Z,2.83
2022-11-10T07:28:38.206Z,4.07
2022-11-10T07:30:30.073Z,2.20
2022-11-10T07:32:20.187Z,2.72
2022-11-10T07:34:10.511Z,1.88
2022-11-10T07:36:07.385Z,2.05
2022-11-10T07:38:01.055Z,1.98
2022-11-10T07:39:50.961Z,2.75
2022-11-10T07:41:41.249Z,3.92
2022-11-10T07:43:31.704Z,3.40
2022-11-10T07:45:22.192Z,1.98
2022-11-10T07:47:12.467Z,2.72
2022-11-10T07:49:02.997Z,2.92
2022-11-10T07:50:53.557Z,2.63
2022-11-10T07:52:44.214Z,1.35
2022-11-10T07:54:34.554Z,3.28
2022-11-10T07:56:24.741Z,3.17
2022-11-10T07:58:17.628Z,2.20
2022-11-10T08:00:08.391Z,1.48
2022-11-10T08:01:58.700Z,2.80
2022-11-10T08:03:49.198Z,3.42
2022-11-10T08:05:40.226Z,1.80
2022-11-10T08:07:31.183Z,3.78
2022-11-10T08:09:21.572Z,2.08
2022-11-10T08:11:12.351Z,5.00
2022-11-10T08:13:05.961Z,2.08
2022-11-10T08:14:56.299Z,2.58
2022-11-10T08:16:46.739Z,2.00
2022-11-10T08:18:36.784Z,2.97
2022-11-10T08:20:27.145Z,2.72
2022-11-10T08:22:17.501Z,2.50
2022-11-10T08:24:08.516Z,2.33
2022-11-10T08:26:01.209Z,3.70
2022-11-10T08:28:00.704Z,5.38
2022-11-10T08:29:51.004Z,6.38
2022-11-10T08:31:41.224Z,5.63
2022-11-10T08:33:31.348Z,3.30
2022-11-10T08:35:22.692Z,4.50
2022-11-10T08:37:12.753Z,3.75
2022-11-10T08:39:02.976Z,3.63
2022-11-10T08:40:56.563Z,3.53
2022-11-10T08:42:48.065Z,2.85
2022-11-10T08:44:38.372Z,3.80
2022-11-10T08:46:28.759Z,2.25
2022-11-10T08:48:20.420Z,3.72
2022-11-10T08:50:11.146Z,2.30
2022-11-10T08:52:01.354Z,1.98
2022-11-10T08:53:52.036Z,2.67
2022-11-10T08:55:44.052Z,1.57
2022-11-10T08:57:34.305Z,3.00
2022-11-10T08:59:24.510Z,4.80
2022-11-10T09:01:14.535Z,4.07
2022-11-10T09:03:13.999Z,3.10
2022-11-10T09:05:04.657Z,1.85
2022-11-10T09:06:57.860Z,1.00
2022-11-10T09:08:48.387Z,1.83
2022-11-10T09:10:44.548Z,2.33
2022-11-10T09:12:34.845Z,3.35
2022-11-10T09:14:25.049Z,2.05
2022-11-10T09:16:15.448Z,1.92
2022-11-10T09:18:09.977Z,2.83
2022-11-10T09:20:00.600Z,3.80
2022-11-10T09:21:51.014Z,3.22
2022-11-10T09:23:41.068Z,2.72
2022-11-10T09:25:31.471Z,3.58
2022-11-10T09:27:21.729Z,3.50
2022-11-10T09:29:11.823Z,1.52
2022-11-10T09:31:01.987Z,1.45
2022-11-10T09:32:56.528Z,2.25
2022-11-10T09:34:51.899Z,3.30
2022-11-10T09:36:43.757Z,2.65
2022-11-10T09:38:35.301Z,3.95
2022-11-10T09:40:35.034Z,3.75
2022-11-10T09:42:39.508Z,2.97
2022-11-10T09:44:36.190Z,2.00
2022-11-10T09:46:30.500Z,3.30
2022-11-10T09:48:32.672Z,2.97
2022-11-10T09:50:31.102Z,1.83
2022-11-10T09:52:23.052Z,1.98
2022-11-10T09:54:46.347Z,2.58
2022-11-10T09:56:37.889Z,2.92
2022-11-10T10:00:22.423Z,3.47
2022-11-10T10:02:32.164Z,1.90
2022-11-10T10:04:56.323Z,1.98
2022-11-10T10:07:10.594Z,2.78
2022-11-10T10:09:26.929Z,3.38
2022-11-10T10:11:41.877Z,2.47
2022-11-10T10:13:53.834Z,4.05
2022-11-10T10:16:00.563Z,3.05
2022-11-10T10:17:59.342Z,1.90
2022-11-10T10:19:55.073Z,2.90
2022-11-10T10:21:48.022Z,1.60
2022-11-10T10:25:56.743Z,5.75
2022-11-10T10:27:51.283Z,2.83
2022-11-10T10:29:46.438Z,2.00
2022-11-10T10:31:47.468Z,3.22
2022-11-10T10:33:37.935Z,2.42
2022-11-10T10:35:28.693Z,3.35
2022-11-10T10:37:51.245Z,5.43
2022-11-10T10:39:46.605Z,2.90
2022-11-10T10:41:37.258Z,3.75
2022-11-10T10:43:27.542Z,3.72
2022-11-10T10:45:29.247Z,2.35
2022-11-10T10:47:19.657Z,3.97
2022-11-10T10:49:33.964Z,4.00
2022-11-10T10:51:29.919Z,2.47
2022-11-10T10:53:22.576Z,3.72
2022-11-10T10:55:14.222Z,2.15
2022-11-10T10:57:30.346Z,3.10
2022-11-10T10:59:22.659Z,2.47
2022-11-10T11:01:15.577Z,3.13
2022-11-10T11:03:13.157Z,2.13
2022-11-10T11:05:16.060Z,2.60
2022-11-10T11:07:21.501Z,2.75
2022-11-10T11:09:20.120Z,2.70
2022-11-10T11:11:11.719Z,2.28
2022-11-10T11:13:20.981Z,2.05
2022-11-10T11:15:26.871Z,2.22
2022-11-10T11:17:22.385Z,4.25
2022-11-10T11:19:12.644Z,2.30
2022-11-10T11:21:26.529Z,3.67
2022-11-10T11:23:51.628Z,3.13
2022-11-10T11:25:43.198Z,1.88
2022-11-10T11:29:54.585Z,3.22
2022-11-10T11:31:59.689Z,3.10
2022-11-10T11:34:16.014Z,1.88
2022-11-10T11:36:25.709Z,2.78
2022-11-10T11:38:53.444Z,3.42
2022-11-10T11:40:46.978Z,1.25
2022-11-10T11:43:02.559Z,2.95
2022-11-10T11:45:06.243Z,3.30
2022-11-10T11:47:14.816Z,3.22
2022-11-10T11:49:22.034Z,1.40
2022-11-10T11:51:24.023Z,3.25
2022-11-10T11:53:52.216Z,3.65
2022-11-10T11:56:00.920Z,2.25
2022-11-10T11:58:13.038Z,2.40
2022-11-10T12:00:12.743Z,1.88
2022-11-10T12:02:32.819Z,2.58
2022-11-10T12:04:49.859Z,2.85
2022-11-10T12:06:55.071Z,2.22
2022-11-10T12:08:57.582Z,2.95
2022-11-10T12:10:51.140Z,1.77
2022-11-10T12:13:08.283Z,5.55
2022-11-10T12:15:33.764Z,3.58
2022-11-10T12:17:32.854Z,5.20
2022-11-10T12:19:46.497Z,2.67
2022-11-10T12:22:08.879Z,3.30
2022-11-10T12:24:07.356Z,3.33
2022-11-10T12:26:12.192Z,2.35
2022-11-10T12:28:15.995Z,2.60
2022-11-10T12:30:10.704Z,3.75
2022-11-10T12:32:16.071Z,3.42
2022-11-10T12:34:14.913Z,3.15
2022-11-10T12:36:17.752Z,2.25
2022-11-10T12:38:17.990Z,2.70
2022-11-10T12:40:37.963Z,2.90
2022-11-10T12:42:34.109Z,4.13
2022-11-10T12:44:33.864Z,4.03
2022-11-10T12:46:24.206Z,3.42
2022-11-10T12:48:17.596Z,3.20
2022-11-10T12:50:36.604Z,2.78
2022-11-10T12:52:40.771Z,2.42
2022-11-10T12:54:31.318Z,2.25
2022-11-10T12:56:44.100Z,3.95
2022-11-10T12:58:34.197Z,2.35
2022-11-10T13:00:28.602Z,2.90
2022-11-10T13:02:45.293Z,2.58
2022-11-10T13:04:35.397Z,2.40
2022-11-10T13:06:39.687Z,2.47
2022-11-10T13:08:33.934Z,2.22
2022-11-10T13:10:27.200Z,3.55
2022-11-10T13:12:23.449Z,2.03
2022-11-10T13:14:26.072Z,4.90
2022-11-10T13:16:38.959Z,2.80
2022-11-10T13:18:32.628Z,2.28
2022-11-10T13:20:41.828Z,2.72
2022-11-10T13:22:41.017Z,1.65
2022-11-10T13:24:34.793Z,4.20
2022-11-10T13:26:40.010Z,2.33
2022-11-10T13:28:48.301Z,2.88
2022-11-10T13:30:44.972Z,1.92
2022-11-10T13:32:35.910Z,3.60
2022-11-10T13:34:33.963Z,3.03
2022-11-10T13:36:39.447Z,3.28
2022-11-10T13:38:32.990Z,2.10
2022-11-10T13:40:23.290Z,4.47
2022-11-10T13:42:20.195Z,2.50
2022-11-10T13:44:49.140Z,2.00
2022-11-10T13:46:59.744Z,3.38
2022-11-10T13:49:18.885Z,2.67
2022-11-10T13:51:27.690Z,2.90
2022-11-10T13:53:35.690Z,2.08
2022-11-10T13:55:44.945Z,2.45
2022-11-10T13:57:37.693Z,2.08
2022-11-10T13:59:42.928Z,2.25
2022-11-10T14:01:33.964Z,2.22
2022-11-10T14:03:45.752Z,3.30
2022-11-10T14:05:38.647Z,2.72
2022-11-10T14:07:31.382Z,2.10
2022-11-10T14:09:32.192Z,3.10
2022-11-10T14:11:29.960Z,3.75
2022-11-10T14:13:35.724Z,2.72
2022-11-10T14:15:36.964Z,2.40
2022-11-10T14:17:32.561Z,2.10
2022-11-10T14:19:44.221Z,2.42
2022-11-10T14:21:43.476Z,5.47
2022-11-10T14:23:49.005Z,2.05
2022-11-10T14:25:43.230Z,2.55
2022-11-10T14:27:35.679Z,2.35
2022-11-10T14:29:38.493Z,3.42
2022-11-10T14:31:28.878Z,5.40
2022-11-10T14:33:19.957Z,3.63
2022-11-10T14:35:22.508Z,5.38
2022-11-10T14:37:19.776Z,3.35
2022-11-10T14:39:09.938Z,4.13
2022-11-10T14:41:03.159Z,2.75
2022-11-10T14:42:53.311Z,2.53
2022-11-10T14:44:43.530Z,1.80
2022-11-10T14:46:33.986Z,1.77
2022-11-10T14:48:27.199Z,2.33
2022-11-10T14:50:24.330Z,1.67
2022-11-10T14:52:15.005Z,2.47
2022-11-10T14:54:07.332Z,2.83
2022-11-10T14:55:59.073Z,3.10
2022-11-10T14:57:52.520Z,3.65
2022-11-10T14:59:43.007Z,2.58
2022-11-10T15:01:33.924Z,3.13
2022-11-10T15:03:39.494Z,5.13
2022-11-10T15:05:31.584Z,4.65
2022-11-10T15:07:22.791Z,2.75
2022-11-10T15:09:15.577Z,3.00
2022-11-10T15:11:06.611Z,2.75
2022-11-10T15:13:28.775Z,2.55
2022-11-10T15:15:22.194Z,2.55
2022-11-10T15:17:20.934Z,4.43
2022-11-10T15:19:22.227Z,4.07
2022-11-10T15:21:12.889Z,4.28
2022-11-10T15:23:05.350Z,3.50
2022-11-10T15:24:58.574Z,4.45
2022-11-10T15:26:49.024Z,3.67
2022-11-10T15:28:42.618Z,6.25
2022-11-10T15:30:32.995Z,5.78
2022-11-10T15:32:31.552Z,4.35
2022-11-10T15:34:42.235Z,4.45
2022-11-10T15:36:35.746Z,3.17
2022-11-10T15:38:30.967Z,2.67
2022-11-10T15:40:47.912Z,3.05
2022-11-10T15:42:38.338Z,3.80
2022-11-10T15:44:28.337Z,4.20
2022-11-10T15:46:24.300Z,3.53
2022-11-10T15:48:16.952Z,3.83
2022-11-10T15:50:12.146Z,4.03
2022-11-10T15:52:26.685Z,3.17
2022-11-10T15:54:21.801Z,3.10
2022-11-10T15:56:14.682Z,2.38
2022-11-10T15:58:12.003Z,4.43
2022-11-10T16:00:02.251Z,3.70
2022-11-10T16:01:52.872Z,2.42
2022-11-10T16:03:43.687Z,3.08
2022-11-10T16:05:33.846Z,2.53
2022-11-10T16:07:23.953Z,3.03
2022-11-10T16:09:14.324Z,3.58
2022-11-10T16:11:05.144Z,3.33
2022-11-10T16:12:55.627Z,3.00
2022-11-10T16:14:51.239Z,4.07
2022-11-10T16:16:41.993Z,4.53
2022-11-10T16:18:31.972Z,3.22
2022-11-10T16:20:22.250Z,3.25
2022-11-10T16:22:12.999Z,4.00
2022-11-10T16:24:03.373Z,2.75
2022-11-10T16:25:56.201Z,4.25
2022-11-10T16:27:46.619Z,3.10
2022-11-10T16:29:37.597Z,4.75
2022-11-10T16:31:29.340Z,3.70
2022-11-10T16:33:21.469Z,3.60
2022-11-10T16:35:13.116Z,4.57
2022-11-10T16:38:54.441Z,2.55
2022-11-10T16:40:45.121Z,2.38
2022-11-10T16:42:35.303Z,3.20
2022-11-10T16:44:25.666Z,3.60
2022-11-10T16:46:22.896Z,4.45
2022-11-10T16:48:18.601Z,4.03
2022-11-10T16:50:35.731Z,2.17
2022-11-10T16:52:26.469Z,2.03
2022-11-10T16:54:16.512Z,2.38
2022-11-10T16:56:12.845Z,3.53
2022-11-10T16:58:03.084Z,3.72
2022-11-10T16:59:53.146Z,3.75
2022-11-10T17:01:45.349Z,4.60
2022-11-10T17:03:44.768Z,3.30
2022-11-10T17:05:35.293Z,3.95
2022-11-10T17:07:27.724Z,1.80
2022-11-10T17:09:22.137Z,2.58
2022-11-10T17:11:12.545Z,2.30
2022-11-10T17:13:02.638Z,3.35
2022-11-10T17:14:52.917Z,3.90
2022-11-10T17:16:45.544Z,3.05
2022-11-10T17:18:36.366Z,3.38
2022-11-10T17:20:34.350Z,3.15
2022-11-10T17:22:25.764Z,2.63
2022-11-10T17:24:17.407Z,3.47
2022-11-10T17:28:03.067Z,3.03
2022-11-10T17:29:53.167Z,2.67
2022-11-10T17:31:44.440Z,2.85
2022-11-10T17:33:34.950Z,3.30
2022-11-10T17:35:26.823Z,3.30
2022-11-10T17:39:13.552Z,3.80
2022-11-10T17:41:03.632Z,4.22
2022-11-10T17:42:53.867Z,3.63
2022-11-10T17:44:44.789Z,5.03
2022-11-10T17:46:34.854Z,3.87
2022-11-10T17:48:25.112Z,6.07
2022-11-10T17:50:17.456Z,3.45
2022-11-10T17:52:17.200Z,4.43
2022-11-10T17:54:13.393Z,3.95
2022-11-10T17:56:03.986Z,3.58
2022-11-10T17:57:55.155Z,5.18
2022-11-10T17:59:45.474Z,4.57
2022-11-10T18:01:35.923Z,5.45
2022-11-10T18:03:26.655Z,5.18
2022-11-10T18:05:18.209Z,3.63
2022-11-10T18:07:08.181Z,3.50
2022-11-10T18:08:58.620Z,4.05
2022-11-10T18:10:50.616Z,4.22
2022-11-10T18:12:41.800Z,3.47
2022-11-10T18:14:34.069Z,3.95
2022-11-10T18:16:24.295Z,4.70
2022-11-10T18:18:16.241Z,4.30
2022-11-10T18:20:07.523Z,5.60
2022-11-10T18:21:57.653Z,4.43
2022-11-10T18:23:47.898Z,4.38
2022-11-10T18:25:40.012Z,3.13
2022-11-10T18:27:31.073Z,3.95
2022-11-10T18:29:21.462Z,3.58
2022-11-10T18:31:13.318Z,4.28
2022-11-10T18:33:04.978Z,3.25
2022-11-10T18:34:55.553Z,4.95
2022-11-10T18:36:45.767Z,4.45
2022-11-10T18:38:36.023Z,4.70
2022-11-10T18:40:26.325Z,4.50
2022-11-10T18:42:16.693Z,5.05
2022-11-10T18:44:06.841Z,3.28
2022-11-10T18:45:56.965Z,4.65
2022-11-10T18:47:47.209Z,4.40
2022-11-10T18:49:37.971Z,2.97
2022-11-10T18:51:28.286Z,4.55
2022-11-10T18:53:18.410Z,4.13
2022-11-10T18:55:09.416Z,5.60
2022-11-10T18:56:59.619Z,5.10
2022-11-10T18:58:56.221Z,4.93
2022-11-10T19:00:47.061Z,2.80
2022-11-10T19:02:37.703Z,4.03
2022-11-10T19:04:28.073Z,5.82
2022-11-10T19:06:18.500Z,4.32
2022-11-10T19:08:09.113Z,3.63
2022-11-10T19:10:00.126Z,4.63
2022-11-10T19:13:41.126Z,5.18
2022-11-10T19:15:31.505Z,4.72
2022-11-10T19:17:21.558Z,3.17
2022-11-10T19:19:12.047Z,2.75
2022-11-10T19:21:11.123Z,4.10
2022-11-10T19:23:01.349Z,4.22
2022-11-10T19:25:07.458Z,3.00
2022-11-10T19:26:58.500Z,4.22
2022-11-10T19:28:48.576Z,4.32
2022-11-10T19:30:39.462Z,4.75
2022-11-10T19:32:29.859Z,2.95
2022-11-10T19:34:19.908Z,4.53
2022-11-10T19:36:12.356Z,4.20
2022-11-10T19:38:02.352Z,5.25
2022-11-10T19:39:52.631Z,2.92
2022-11-10T19:41:43.132Z,6.20
2022-11-10T19:43:34.055Z,4.60
2022-11-10T19:45:24.231Z,3.27
2022-11-10T19:47:14.200Z,4.10
2022-11-10T19:49:04.752Z,3.42
2022-11-10T19:50:56.471Z,4.80
2022-11-10T19:52:46.488Z,4.57
2022-11-10T19:54:36.703Z,3.72
2022-11-10T19:56:31.676Z,5.57
2022-11-10T19:58:22.765Z,2.90
2022-11-10T20:00:13.331Z,3.70
2022-11-10T20:02:03.844Z,5.07
2022-11-10T20:03:54.714Z,5.03
2022-11-10T20:05:46.724Z,5.63
2022-11-10T20:07:56.012Z,6.03
2022-11-10T20:09:46.329Z,4.25
2022-11-10T20:11:36.795Z,3.17
2022-11-10T20:13:27.133Z,5.82
2022-11-10T20:15:17.417Z,4.30
2022-11-10T20:17:07.307Z,3.08
2022-11-10T20:18:57.724Z,4.95
2022-11-10T20:20:48.085Z,3.40
2022-11-10T20:22:38.165Z,4.80
2022-11-10T20:24:28.673Z,5.15
2022-11-10T20:26:19.567Z,3.70
2022-11-10T20:28:09.699Z,4.45
2022-11-10T20:29:59.951Z,3.75
2022-11-10T20:31:50.412Z,5.82
2022-11-10T20:33:40.573Z,3.05
2022-11-10T20:35:31.482Z,3.47
2022-11-10T20:37:21.899Z,3.97
2022-11-10T20:39:12.255Z,4.28
2022-11-10T20:41:04.966Z,3.80
2022-11-10T20:42:55.027Z,3.70
2022-11-10T20:44:45.023Z,3.75
2022-11-10T20:48:47.594Z,3.15
2022-11-10T20:50:40.178Z,3.33
2022-11-10T20:52:33.048Z,4.25
2022-11-10T20:54:23.165Z,5.57
2022-11-10T20:56:15.020Z,9.32
2022-11-10T20:58:05.601Z,6.57
2022-11-10T20:59:56.214Z,4.95
2022-11-10T21:01:47.002Z,4.80
2022-11-10T21:03:37.879Z,11.48
2022-11-10T21:05:28.004Z,3.67
2022-11-10T21:07:18.110Z,4.47
2022-11-10T21:09:08.721Z,4.47
2022-11-10T21:11:01.826Z,6.32
2022-11-10T21:12:52.256Z,4.07
2022-11-10T21:14:42.528Z,4.15
2022-11-10T21:16:32.771Z,4.90
2022-11-10T21:18:31.775Z,3.80
2022-11-10T21:20:21.819Z,3.67
2022-11-10T21:22:11.922Z,4.15
2022-11-10T21:24:04.340Z,3.83
2022-11-10T21:25:57.756Z,2.85
2022-11-10T21:27:48.228Z,4.65
2022-11-10T21:29:38.493Z,3.67
2022-11-10T21:31:30.687Z,3.28
2022-11-10T21:33:21.602Z,5.55
2022-11-10T21:35:12.181Z,3.65
2022-11-10T21:37:02.465Z,3.83
2022-11-10T21:38:52.707Z,4.72
2022-11-10T21:40:42.993Z,2.42
2022-11-10T21:42:35.740Z,2.50
2022-11-10T21:44:26.390Z,3.85
2022-11-10T21:46:17.134Z,4.65
2022-11-10T21:48:08.067Z,4.50
2022-11-10T21:49:58.067Z,3.03
2022-11-10T21:51:48.252Z,6.60
2022-11-10T21:53:42.128Z,4.35
2022-11-10T21:55:32.372Z,3.80
2022-11-10T21:57:22.455Z,3.78
2022-11-10T21:59:13.593Z,3.30
2022-11-10T22:01:12.343Z,3.95
2022-11-10T22:03:04.200Z,3.80
2022-11-10T22:04:54.712Z,4.40
2022-11-10T22:07:03.548Z,3.92
2022-11-10T22:08:53.865Z,5.13
2022-11-10T22:11:02.608Z,3.78
2022-11-10T22:13:11.644Z,3.28
2022-11-10T22:15:20.225Z,2.95
2022-11-10T22:17:34.641Z,4.28
2022-11-10T22:19:25.058Z,4.00
2022-11-10T22:21:15.121Z,4.45
2022-11-10T22:23:05.597Z,3.17
2022-11-10T22:24:55.572Z,3.85
2022-11-10T22:26:45.667Z,4.88
2022-11-10T22:28:35.771Z,4.72
2022-11-10T22:30:25.761Z,3.83
2022-11-10T22:32:15.827Z,5.05
2022-11-10T22:34:05.839Z,5.63
2022-11-10T22:35:58.068Z,4.13
2022-11-10T22:37:48.293Z,3.15
2022-11-10T22:39:57.417Z,3.22
2022-11-10T22:42:06.913Z,3.33
2022-11-10T22:44:06.500Z,3.85
2022-11-10T22:45:56.941Z,3.53
2022-11-10T22:48:05.848Z,3.60
2022-11-10T22:49:56.234Z,3.80
2022-11-10T22:51:49.784Z,4.90
2022-11-10T22:53:39.923Z,3.35
2022-11-10T22:55:30.285Z,4.30
2022-11-10T22:57:20.521Z,3.72
2022-11-10T22:59:11.867Z,5.38
2022-11-10T23:01:10.415Z,3.10
2022-11-10T23:03:04.042Z,2.75
2022-11-10T23:04:54.496Z,3.90
2022-11-10T23:06:44.869Z,4.47
2022-11-10T23:08:36.104Z,3.35
2022-11-10T23:10:26.634Z,3.55
2022-11-10T23:12:17.353Z,3.10
2022-11-10T23:14:07.402Z,3.85
2022-11-10T23:16:05.721Z,6.88
2022-11-10T23:17:56.089Z,3.47
2022-11-10T23:19:47.553Z,3.58
2022-11-10T23:23:31.095Z,3.95
2022-11-10T23:25:21.359Z,4.10
2022-11-10T23:27:11.684Z,5.70
2022-11-10T23:29:01.773Z,3.65
2022-11-10T23:30:52.159Z,5.47
2022-11-10T23:32:42.466Z,4.07
2022-11-10T23:34:32.811Z,3.03
2022-11-10T23:36:25.991Z,3.20
2022-11-10T23:38:16.181Z,3.13
2022-11-10T23:40:07.262Z,4.00
2022-11-10T23:41:57.284Z,2.85
2022-11-10T23:43:47.691Z,5.10
2022-11-10T23:46:05.231Z,4.85
2022-11-10T23:47:48.670Z,3.88
2022-11-10T23:49:38.977Z,3.05
2022-11-10T23:51:28.999Z,3.72
2022-11-10T23:53:20.082Z,5.10
2022-11-10T23:55:10.925Z,4.57
2022-11-10T23:57:01.149Z,3.63
2022-11-10T23:58:51.369Z,5.50
